KCLM/CLM METAR and TAF weather

Enter ICAO airport designator
Station Type Date Time Source
KCLM METAR 2021/10/22 18:06 UTC NOAA

KCLM 221806Z AUTO 11005KT 9SM -RA FEW021 BKN032 OVC042 12/10 A2976 RMK AO2 P0000 T01220100


Station Type Date Time Source
KCLM Decoded METAR 2021/10/22 18:06 UTC NOAA

PORT ANGELES FAIRCHILD INTERNATIONAL , WA, United States (KCLM) 48-07N 123-30W 85M
Oct 22, 2021 - 02:06 PM EDT / 2021.10.22 1806 UTC
Wind: from the ESE (110 degrees) at 6 MPH (5 KT):0
Visibility: 9 mile(s):0
Sky conditions: overcast
Weather: light rain
Precipitation last hour: A trace
Temperature: 54.0 F (12.2 C)
Dew Point: 50.0 F (10.0 C)
Relative Humidity: 86%
Pressure (altimeter): 29.76 in. Hg (1007 hPa)
ob: KCLM 221806Z AUTO 11005KT 9SM -RA FEW021 BKN032 OVC042 12/10 A2976 RMK AO2 P0000 T01220100
cycle: 18

Station Type Date Time Source
KCLM TAF 2021/10/22 18:22 UTC NOAA

TAF KCLM 221720Z 2218/2318 VRB04KT P6SM SCT020 OVC050
TEMPO 2218/2222 5SM -SHRA BR BKN020 OVC040
FM231000 VRB04KT P6SM SCT020 OVC040
TEMPO 2312/2316 -RA BKN020 OVC040
FM231600 VRB04KT 5SM -RA BR BKN020 OVC040

Example: see airport list